Time;durP1;ratioP1;P1;durP2;ratioP2;P2;SDS_P1;SDS_P2;PMS_P1;PMS_P2;Temp;Humidity;BMP_temperature;BMP_pressure;BME280_temperature;BME280_humidity;BME280_pressure;Samples;Min_cycle;Max_cycle;Signal;HPM_P1;HPM_P2
2021/06/24 00:00:34;;;;;;;;;;;;;;;15.68;68.09;102172.72;5134896;27;19907;-40
2021/06/24 00:03:00;;;;;;;;;;;;;;;15.65;67.82;102174.00;5135294;28;20389;-40
2021/06/24 00:05:25;;;;;;;;;;;;;;;15.62;68.28;102179.91;5135311;28;19957;-40
2021/06/24 00:07:50;;;;;;;;;;;;;;;15.63;68.53;102175.28;5134608;28;19976;-40
2021/06/24 00:10:15;;;;;;;;;;;;;;;15.60;68.11;102170.28;5135039;28;19914;-40
2021/06/24 00:12:40;;;;;;;;;;;;;;;15.60;68.10;102192.09;5134672;28;19937;-40
2021/06/24 00:15:06;;;;;;;;;;;;;;;15.57;69.53;102190.69;5134949;28;19911;-40
2021/06/24 00:17:31;;;;;;;;;;;;;;;15.52;68.96;102190.53;5134849;27;19915;-40
2021/06/24 00:19:56;;;;;;;;;;;;;;;15.51;68.01;102186.13;5135473;28;19918;-40
2021/06/24 00:22:21;;;;;;;;;;;;;;;15.51;69.55;102182.56;5135122;28;20271;-40
2021/06/24 00:24:47;;;;;;;;;;;;;;;15.47;68.56;102176.78;5134875;28;20350;-40
2021/06/24 00:27:12;;;;;;;;;;;;;;;15.46;69.15;102186.81;5134734;28;19908;-40
2021/06/24 00:29:37;;;;;;;;;;;;;;;15.48;69.06;102189.34;5135611;28;19960;-40
2021/06/24 00:32:03;;;;;;;;;;;;;;;15.49;68.29;102187.44;5134288;28;19957;-40
2021/06/24 00:34:28;;;;;;;;;;;;;;;15.50;68.68;102192.66;5135361;27;19907;-40
2021/06/24 00:36:53;;;;;;;;;;;;;;;15.50;68.89;102195.38;5135423;28;19911;-40
2021/06/24 00:39:18;;;;;;;;;;;;;;;15.49;69.29;102207.34;5134386;28;20363;-40
2021/06/24 00:41:44;;;;;;;;;;;;;;;15.46;68.53;102205.06;5134957;28;20250;-40
2021/06/24 00:44:09;;;;;;;;;;;;;;;15.48;68.65;102199.41;5134654;27;19959;-40
2021/06/24 00:46:35;;;;;;;;;;;;;;;15.48;68.49;102193.97;5134853;28;19912;-40
2021/06/24 00:49:03;;;;;;;;;;;;;;;15.47;69.06;102184.94;5134544;28;19907;-40
2021/06/24 00:51:28;;;;;;;;;;;;;;;15.49;68.67;102190.16;5135474;27;19907;-40
2021/06/24 00:53:53;;;;;;;;;;;;;;;15.49;68.82;102185.53;5134260;27;20258;-40
2021/06/24 00:56:30;;;;;;;;;;;;;;;15.49;68.55;102180.09;5134870;28;19911;-40
2021/06/24 00:58:55;;;;;;;;;;;;;;;15.45;68.92;102176.16;5134823;27;20342;-40
2021/06/24 01:01:21;;;;;;;;;;;;;;;15.43;68.70;102172.84;5134818;27;19907;-40
2021/06/24 01:03:46;;;;;;;;;;;;;;;15.42;68.91;102179.31;5138037;27;20251;-40
2021/06/24 01:06:11;;;;;;;;;;;;;;;15.33;69.44;102178.00;5138502;27;19917;-40
2021/06/24 01:08:36;;;;;;;;;;;;;;;15.32;69.15;102176.31;5138071;27;20335;-41
2021/06/24 01:11:01;;;;;;;;;;;;;;;15.33;69.14;102173.38;5138133;27;19946;-40
2021/06/24 01:13:27;;;;;;;;;;;;;;;15.34;69.26;102175.03;5137750;27;20381;-40
2021/06/24 01:15:52;;;;;;;;;;;;;;;15.29;69.75;102180.34;5138377;27;19907;-40
2021/06/24 01:18:17;;;;;;;;;;;;;;;15.27;70.70;102181.63;5137965;27;19939;-40
2021/06/24 01:20:43;;;;;;;;;;;;;;;15.19;69.83;102175.47;5138022;27;19915;-40
2021/06/24 01:23:08;;;;;;;;;;;;;;;15.20;69.86;102166.22;5138124;27;19914;-40
2021/06/24 01:25:34;;;;;;;;;;;;;;;15.18;69.77;102168.34;5138188;27;19907;-40
2021/06/24 01:28:01;;;;;;;;;;;;;;;15.20;69.94;102160.75;5137699;27;19908;-40
2021/06/24 01:30:27;;;;;;;;;;;;;;;15.21;69.53;102156.13;5138079;27;19919;-40
2021/06/24 01:32:52;;;;;;;;;;;;;;;15.20;69.31;102160.75;5137939;27;20381;-40
2021/06/24 01:35:21;;;;;;;;;;;;;;;15.23;69.06;102158.66;5137675;27;19916;-40
2021/06/24 01:37:47;;;;;;;;;;;;;;;15.25;69.13;102154.63;5137882;27;19911;-40
2021/06/24 01:40:13;;;;;;;;;;;;;;;15.25;69.28;102143.72;5137625;27;19914;-40
2021/06/24 01:42:40;;;;;;;;;;;;;;;15.26;68.90;102153.56;5138387;27;20263;-40
2021/06/24 01:45:05;;;;;;;;;;;;;;;15.26;69.09;102148.09;5137539;27;19907;-40
2021/06/24 01:47:31;;;;;;;;;;;;;;;15.26;69.06;102148.09;5137542;27;20002;-40
2021/06/24 01:49:56;;;;;;;;;;;;;;;15.26;69.38;102147.28;5137445;27;20355;-40
2021/06/24 01:52:21;;;;;;;;;;;;;;;15.24;69.05;102149.41;5137369;27;19907;-40
2021/06/24 01:54:47;;;;;;;;;;;;;;;15.25;69.52;102153.78;5137302;27;19912;-40
2021/06/24 01:57:13;;;;;;;;;;;;;;;15.23;69.37;102148.59;5137264;27;20017;-40
2021/06/24 01:59:39;;;;;;;;;;;;;;;15.23;69.47;102139.59;5138111;27;19907;-40
2021/06/24 02:02:04;;;;;;;;;;;;;;;15.18;69.57;102140.28;5136814;27;19908;-40
2021/06/24 02:04:29;;;;;;;;;;;;;;;15.16;69.56;102143.19;5136821;27;19915;-40
2021/06/24 02:06:54;;;;;;;;;;;;;;;15.14;70.51;102145.34;5137053;27;19907;-40
2021/06/24 02:09:20;;;;;;;;;;;;;;;15.12;69.60;102144.72;5136605;27;19907;-40
2021/06/24 02:11:45;;;;;;;;;;;;;;;15.08;70.77;102145.41;5137039;27;19908;-40
2021/06/24 02:14:10;;;;;;;;;;;;;;;15.04;70.03;102139.59;5135822;27;19967;-40
2021/06/24 02:16:35;;;;;;;;;;;;;;;15.04;69.95;102145.06;5137182;27;20328;-40
2021/06/24 02:19:01;;;;;;;;;;;;;;;15.02;69.68;102140.88;5136800;27;19907;-40
2021/06/24 02:21:26;;;;;;;;;;;;;;;15.03;70.10;102137.94;5137617;27;19915;-40
2021/06/24 02:23:51;;;;;;;;;;;;;;;15.00;69.85;102132.94;5136406;27;19907;-40
2021/06/24 02:26:16;;;;;;;;;;;;;;;15.01;69.88;102131.88;5136667;27;19961;-40
2021/06/24 02:28:41;;;;;;;;;;;;;;;15.04;70.41;102134.16;5135258;27;20388;-40
2021/06/24 02:31:07;;;;;;;;;;;;;;;15.03;70.59;102143.41;5137422;27;19990;-40
2021/06/24 02:33:32;;;;;;;;;;;;;;;15.03;70.13;102139.81;5136481;27;19914;-40
2021/06/24 02:35:58;;;;;;;;;;;;;;;15.01;69.74;102140.06;5137368;27;19907;-40
2021/06/24 02:38:23;;;;;;;;;;;;;;;14.99;69.88;102147.63;5136694;27;19907;-40
2021/06/24 02:40:48;;;;;;;;;;;;;;;14.97;69.91;102138.84;5136666;27;19908;-40
2021/06/24 02:43:14;;;;;;;;;;;;;;;14.97;69.94;102144.28;5136591;27;19907;-40
2021/06/24 02:45:42;;;;;;;;;;;;;;;14.98;69.85;102135.06;5136559;27;20398;-40
2021/06/24 02:48:08;;;;;;;;;;;;;;;14.96;69.78;102142.63;5136696;27;19968;-40
2021/06/24 02:50:33;;;;;;;;;;;;;;;14.92;70.05;102134.06;5135939;27;19966;-40
2021/06/24 02:52:58;;;;;;;;;;;;;;;14.89;69.89;102136.44;5136965;27;19915;-40
2021/06/24 02:55:30;;;;;;;;;;;;;;;14.87;70.27;102135.81;5136345;27;20385;-40
2021/06/24 02:57:55;;;;;;;;;;;;;;;14.86;70.03;102137.72;5136384;27;19942;-40
2021/06/24 03:00:20;;;;;;;;;;;;;;;14.84;70.24;102139.03;5136358;27;19968;-40
2021/06/24 03:02:46;;;;;;;;;;;;;;;14.79;70.21;102128.81;5135689;27;20486;-40
2021/06/24 03:05:11;;;;;;;;;;;;;;;14.81;70.98;102136.75;5136198;27;19911;-40
2021/06/24 03:07:36;;;;;;;;;;;;;;;14.80;70.65;102132.38;5135753;27;19964;-40
2021/06/24 03:10:02;;;;;;;;;;;;;;;14.81;70.31;102125.84;5136165;27;19952;-40
2021/06/24 03:12:27;;;;;;;;;;;;;;;14.82;69.85;102125.63;5136070;27;19908;-40
2021/06/24 03:14:52;;;;;;;;;;;;;;;14.85;69.90;102124.34;5135777;27;19907;-40
2021/06/24 03:17:18;;;;;;;;;;;;;;;14.87;69.77;102122.22;5136498;27;19907;-40
2021/06/24 03:19:43;;;;;;;;;;;;;;;14.86;71.23;102123.28;5135658;27;19953;-40
2021/06/24 03:22:08;;;;;;;;;;;;;;;14.86;70.27;102126.00;5135594;27;20001;-40
2021/06/24 03:24:34;;;;;;;;;;;;;;;14.86;70.12;102131.44;5135332;27;19961;-40
2021/06/24 03:26:59;;;;;;;;;;;;;;;14.88;70.04;102126.59;5136723;27;19907;-40
2021/06/24 03:29:24;;;;;;;;;;;;;;;14.89;70.28;102131.00;5135428;27;20331;-40
2021/06/24 03:31:49;;;;;;;;;;;;;;;14.87;69.90;102135.81;5136405;27;19907;-40
2021/06/24 03:34:15;;;;;;;;;;;;;;;14.83;70.10;102131.91;5135445;27;19907;-40
2021/06/24 03:36:40;;;;;;;;;;;;;;;14.83;70.17;102137.34;5135126;27;20243;-40
2021/06/24 03:39:05;;;;;;;;;;;;;;;14.75;70.76;102124.88;5135009;27;19944;-40
2021/06/24 03:41:30;;;;;;;;;;;;;;;14.67;70.10;102131.44;5135342;27;19908;-40
2021/06/24 03:43:56;;;;;;;;;;;;;;;14.68;70.12;102129.56;5135815;27;19918;-40
2021/06/24 03:46:24;;;;;;;;;;;;;;;14.65;69.90;102122.69;5135273;27;19911;-40
2021/06/24 03:48:50;;;;;;;;;;;;;;;14.70;70.09;102129.34;5135436;27;19908;-40
2021/06/24 03:51:15;;;;;;;;;;;;;;;14.70;70.02;102126.63;5136100;27;19914;-40
2021/06/24 03:53:41;;;;;;;;;;;;;;;14.73;70.37;102131.59;5134929;27;20435;-40
2021/06/24 03:56:08;;;;;;;;;;;;;;;14.75;69.84;102132.22;5135440;27;19912;-40
2021/06/24 03:58:33;;;;;;;;;;;;;;;14.78;70.23;102129.84;5135074;27;20247;-40
2021/06/24 04:00:58;;;;;;;;;;;;;;;14.78;69.99;102129.03;5135326;27;19908;-40
2021/06/24 04:03:23;;;;;;;;;;;;;;;14.73;70.22;102124.25;5135657;27;20313;-40
2021/06/24 04:05:49;;;;;;;;;;;;;;;14.73;70.35;102126.97;5135664;28;20301;-40
2021/06/24 04:08:14;;;;;;;;;;;;;;;14.73;70.28;102134.31;5134657;28;19911;-40
2021/06/24 04:10:39;;;;;;;;;;;;;;;14.71;70.37;102122.84;5135321;28;20339;-40
2021/06/24 04:13:05;;;;;;;;;;;;;;;14.71;70.01;102125.56;5134906;28;20370;-40
2021/06/24 04:15:31;;;;;;;;;;;;;;;14.72;70.12;102119.06;5135278;27;20251;-40
2021/06/24 04:17:56;;;;;;;;;;;;;;;14.71;70.42;102123.66;5134832;27;19911;-40
2021/06/24 04:20:22;;;;;;;;;;;;;;;14.68;70.30;102114.06;5135193;28;19907;-40
2021/06/24 04:22:47;;;;;;;;;;;;;;;14.71;69.98;102118.22;5135089;27;19911;-40
2021/06/24 04:25:14;;;;;;;;;;;;;;;14.73;70.03;102118.00;5135160;27;20315;-40
2021/06/24 04:27:39;;;;;;;;;;;;;;;14.72;70.81;102119.06;5134645;27;19914;-40
2021/06/24 04:30:05;;;;;;;;;;;;;;;14.70;70.01;102119.28;5135113;27;19907;-40
2021/06/24 04:32:30;;;;;;;;;;;;;;;14.68;70.98;102114.06;5134381;27;19960;-40
2021/06/24 04:34:55;;;;;;;;;;;;;;;14.69;70.58;102112.19;5135605;28;19907;-40
2021/06/24 04:37:20;;;;;;;;;;;;;;;14.69;71.96;102112.19;5136754;27;19932;-40
2021/06/24 04:39:45;;;;;;;;;;;;;;;14.65;70.97;102111.81;5139364;27;20305;-40
2021/06/24 04:42:11;;;;;;;;;;;;;;;14.64;70.70;102101.97;5139542;27;19950;-40
2021/06/24 04:44:36;;;;;;;;;;;;;;;14.66;71.25;102102.56;5139247;27;19911;-40
2021/06/24 04:47:02;;;;;;;;;;;;;;;14.69;71.16;102101.28;5138720;27;19960;-40
2021/06/24 04:49:27;;;;;;;;;;;;;;;14.73;70.93;102102.47;5139064;27;20239;-40
2021/06/24 04:51:52;;;;;;;;;;;;;;;14.74;71.28;102097.84;5139097;27;19915;-40
2021/06/24 04:54:18;;;;;;;;;;;;;;;14.74;71.10;102096.00;5139066;27;19922;-40
2021/06/24 04:56:43;;;;;;;;;;;;;;;14.76;71.01;102098.47;5137699;27;19907;-40
2021/06/24 04:59:09;;;;;;;;;;;;;;;14.82;71.42;102098.38;5138135;27;19914;-40
2021/06/24 05:01:35;;;;;;;;;;;;;;;14.90;70.77;102106.25;5138683;27;19930;-40
2021/06/24 05:04:00;;;;;;;;;;;;;;;14.93;70.41;102099.50;5138019;27;20335;-40
2021/06/24 05:06:25;;;;;;;;;;;;;;;14.98;70.49;102101.53;5138579;27;19907;-40
2021/06/24 05:08:50;;;;;;;;;;;;;;;15.01;70.50;102107.38;5137851;27;19942;-40
2021/06/24 05:11:16;;;;;;;;;;;;;;;14.97;70.62;102111.59;5138162;27;19964;-40
2021/06/24 05:13:41;;;;;;;;;;;;;;;14.97;70.51;102110.78;5138931;27;19942;-40
2021/06/24 05:16:06;;;;;;;;;;;;;;;14.99;70.48;102109.50;5138416;27;19918;-40
2021/06/24 05:18:32;;;;;;;;;;;;;;;15.03;70.86;102109.84;5137961;27;19908;-40
2021/06/24 05:20:59;;;;;;;;;;;;;;;15.04;71.16;102108.81;5137727;27;19911;-40
2021/06/24 05:23:25;;;;;;;;;;;;;;;15.08;71.06;102110.84;5138744;27;19967;-40
2021/06/24 05:25:50;;;;;;;;;;;;;;;15.09;71.31;102108.97;5137583;27;19911;-40
2021/06/24 05:28:16;;;;;;;;;;;;;;;15.09;70.71;102107.06;5138578;27;19914;-40
2021/06/24 05:30:41;;;;;;;;;;;;;;;15.14;70.98;102096.31;5137804;27;19907;-40
2021/06/24 05:33:06;;;;;;;;;;;;;;;15.18;71.74;102102.94;5137731;27;20014;-40
2021/06/24 05:35:32;;;;;;;;;;;;;;;15.22;70.84;102105.19;5138008;27;20425;-40
2021/06/24 05:37:57;;;;;;;;;;;;;;;15.27;71.16;102102.59;5137597;27;19976;-40
2021/06/24 05:40:22;;;;;;;;;;;;;;;15.31;70.74;102103.81;5137364;27;19913;-40
2021/06/24 05:42:48;;;;;;;;;;;;;;;15.34;70.62;102098.72;5137807;27;20258;-40
2021/06/24 05:45:13;;;;;;;;;;;;;;;15.38;70.71;102096.38;5137832;27;19914;-40
2021/06/24 05:47:39;;;;;;;;;;;;;;;15.42;70.23;102098.41;5137726;27;20306;-40
2021/06/24 05:50:04;;;;;;;;;;;;;;;15.46;70.14;102098.75;5137731;27;20005;-40
2021/06/24 05:52:29;;;;;;;;;;;;;;;15.51;70.67;102098.06;5137326;27;19922;-41
2021/06/24 05:54:55;;;;;;;;;;;;;;;15.54;70.67;102094.88;5137296;27;19907;-40
2021/06/24 05:57:20;;;;;;;;;;;;;;;15.58;70.34;102096.06;5137190;27;19907;-40
2021/06/24 05:59:46;;;;;;;;;;;;;;;15.56;70.06;102085.38;5137047;27;19921;-40
2021/06/24 06:02:11;;;;;;;;;;;;;;;15.61;70.42;102085.50;5138045;27;20276;-40
2021/06/24 06:04:36;;;;;;;;;;;;;;;15.70;70.40;102088.75;5137716;27;19930;-40
2021/06/24 06:07:02;;;;;;;;;;;;;;;15.76;70.04;102087.00;5137296;27;19913;-40
2021/06/24 06:09:28;;;;;;;;;;;;;;;15.77;69.44;102081.31;5136924;27;19908;-40
2021/06/24 06:11:54;;;;;;;;;;;;;;;15.81;69.85;102084.38;5137334;27;20337;-40
2021/06/24 06:14:19;;;;;;;;;;;;;;;15.85;69.46;102091.03;5137218;27;19916;-40
2021/06/24 06:16:45;;;;;;;;;;;;;;;15.92;69.63;102091.78;5137202;27;20343;-40
2021/06/24 06:19:11;;;;;;;;;;;;;;;15.96;69.59;102087.50;5136896;27;19957;-40
2021/06/24 06:21:36;;;;;;;;;;;;;;;15.99;69.50;102091.63;5136620;27;20056;-40
2021/06/24 06:24:01;;;;;;;;;;;;;;;15.96;69.52;102088.34;5136702;27;19914;-40
2021/06/24 06:26:27;;;;;;;;;;;;;;;15.96;69.12;102093.78;5136726;27;19914;-40
2021/06/24 06:28:52;;;;;;;;;;;;;;;15.98;69.16;102090.81;5136208;27;20350;-40
2021/06/24 06:31:19;;;;;;;;;;;;;;;15.98;69.22;102084.53;5136141;27;19914;-40
2021/06/24 06:33:44;;;;;;;;;;;;;;;16.00;69.33;102087.84;5136594;27;19915;-40
2021/06/24 06:36:09;;;;;;;;;;;;;;;15.98;69.42;102090.81;5137163;27;20281;-40
2021/06/24 06:38:34;;;;;;;;;;;;;;;16.01;69.19;102084.91;5136147;27;19907;-41
2021/06/24 06:41:00;;;;;;;;;;;;;;;16.05;69.20;102087.97;5136390;27;19907;-40
2021/06/24 06:43:26;;;;;;;;;;;;;;;16.06;69.32;102086.91;5136572;27;19907;-40
2021/06/24 06:45:51;;;;;;;;;;;;;;;16.07;69.61;102086.66;5136566;27;20354;-40
2021/06/24 06:48:16;;;;;;;;;;;;;;;16.04;70.04;102084.41;5137296;27;19969;-40
2021/06/24 06:50:42;;;;;;;;;;;;;;;16.12;69.66;102092.25;5136503;27;20339;-40
2021/06/24 06:53:08;;;;;;;;;;;;;;;16.16;69.53;102087.97;5135819;27;19911;-40
2021/06/24 06:55:37;;;;;;;;;;;;;;;16.21;69.05;102082.63;5135832;27;19960;-40
2021/06/24 06:58:03;;;;;;;;;;;;;;;16.21;69.02;102079.06;5136064;27;19907;-40
2021/06/24 07:00:29;;;;;;;;;;;;;;;16.20;69.47;102089.16;5135813;27;20266;-40
2021/06/24 07:02:55;;;;;;;;;;;;;;;16.16;69.26;102087.16;5136812;27;19907;-40
2021/06/24 07:05:20;;;;;;;;;;;;;;;16.15;69.32;102086.31;5135722;27;20374;-40
2021/06/24 07:07:46;;;;;;;;;;;;;;;16.12;68.82;102085.97;5135504;27;20266;-40
2021/06/24 07:10:11;;;;;;;;;;;;;;;16.08;69.03;102091.06;5135846;27;19907;-40
2021/06/24 07:12:36;;;;;;;;;;;;;;;16.04;68.97;102094.50;5136075;27;19911;-40
2021/06/24 07:15:02;;;;;;;;;;;;;;;16.01;68.88;102084.06;5135815;27;19911;-39
2021/06/24 07:17:27;;;;;;;;;;;;;;;16.01;68.95;102084.06;5135661;27;19907;-40
2021/06/24 07:19:53;;;;;;;;;;;;;;;15.99;68.80;102086.19;5135702;27;19958;-41
2021/06/24 07:22:18;;;;;;;;;;;;;;;15.99;69.47;102091.63;5136225;27;19914;-40
2021/06/24 07:24:44;;;;;;;;;;;;;;;15.93;69.27;102088.78;5135864;27;20243;-40
2021/06/24 07:27:09;;;;;;;;;;;;;;;15.96;69.95;102088.34;5135262;27;20311;-40
2021/06/24 07:29:34;;;;;;;;;;;;;;;15.99;69.06;102097.09;5136056;27;20056;-40
2021/06/24 07:32:00;;;;;;;;;;;;;;;16.02;69.31;102091.19;5135208;27;19907;-40
2021/06/24 07:34:25;;;;;;;;;;;;;;;16.05;68.92;102102.44;5135439;27;19908;-40
2021/06/24 07:36:51;;;;;;;;;;;;;;;16.12;68.78;102100.44;5135452;27;19907;-40
2021/06/24 07:39:16;;;;;;;;;;;;;;;16.17;68.34;102102.44;5135932;27;20002;-40
2021/06/24 07:41:41;;;;;;;;;;;;;;;16.20;68.48;102096.50;5135342;27;19907;-41
2021/06/24 07:44:07;;;;;;;;;;;;;;;16.24;68.95;102105.88;5135267;27;19964;-40
2021/06/24 07:46:32;;;;;;;;;;;;;;;16.27;67.67;102102.69;5135707;27;19955;-40
2021/06/24 07:48:57;;;;;;;;;;;;;;;16.23;66.43;102099.59;5134795;27;20365;-40
2021/06/24 07:51:22;;;;;;;;;;;;;;;16.12;67.20;102100.44;5135477;27;19907;-44
2021/06/24 07:53:48;;;;;;;;;;;;;;;16.03;67.32;102096.38;5135096;27;19911;-40
2021/06/24 07:56:14;;;;;;;;;;;;;;;16.04;66.80;102097.22;5135146;27;19915;-41
2021/06/24 07:58:39;;;;;;;;;;;;;;;16.09;67.22;102095.44;5135106;27;19908;-40
2021/06/24 08:01:05;;;;;;;;;;;;;;;16.05;66.88;102093.41;5135715;27;19915;-40
2021/06/24 08:03:31;;;;;;;;;;;;;;;16.08;67.95;102096.50;5135037;27;19914;-40
2021/06/24 08:05:56;;;;;;;;;;;;;;;16.12;67.50;102097.69;5135361;27;19964;-40
2021/06/24 08:08:21;;;;;;;;;;;;;;;16.17;67.35;102091.53;5133572;28;19907;-40
2021/06/24 08:10:47;;;;;;;;;;;;;;;16.23;67.15;102088.66;5135075;27;19911;-40
2021/06/24 08:13:12;;;;;;;;;;;;;;;16.20;66.88;102080.13;5138170;27;19915;-41
2021/06/24 08:15:37;;;;;;;;;;;;;;;16.11;66.43;102093.31;5140182;27;19915;-40
2021/06/24 08:18:02;;;;;;;;;;;;;;;16.08;66.41;102088.31;5138877;27;19907;-40
2021/06/24 08:20:28;;;;;;;;;;;;;;;16.12;66.62;102091.41;5139925;27;19945;-40
2021/06/24 08:22:55;;;;;;;;;;;;;;;16.12;66.85;102096.88;5139007;27;19907;-40
2021/06/24 08:25:20;;;;;;;;;;;;;;;16.11;66.66;102098.78;5139090;27;19914;-41
2021/06/24 08:27:46;;;;;;;;;;;;;;;16.13;66.31;102103.97;5138935;27;20001;-41
2021/06/24 08:30:11;;;;;;;;;;;;;;;16.04;66.67;102100.78;5139842;27;19907;-40
2021/06/24 08:32:37;;;;;;;;;;;;;;;16.04;66.22;102097.22;5138784;27;19971;-40
2021/06/24 08:35:03;;;;;;;;;;;;;;;16.08;66.62;102096.50;5138858;27;19999;-40
2021/06/24 08:37:28;;;;;;;;;;;;;;;16.13;66.44;102098.53;5138785;27;20009;-40
2021/06/24 08:39:54;;;;;;;;;;;;;;;16.14;66.08;102103.72;5138540;27;20300;-41
2021/06/24 08:42:19;;;;;;;;;;;;;;;16.13;65.87;102096.63;5138998;27;20327;-41
2021/06/24 08:44:45;;;;;;;;;;;;;;;16.12;66.66;102107.78;5138972;27;20396;-40
2021/06/24 08:47:12;;;;;;;;;;;;;;;16.12;66.32;102092.25;5138774;27;19911;-40
2021/06/24 08:49:37;;;;;;;;;;;;;;;16.14;66.63;102094.72;5139657;27;19915;-40
2021/06/24 08:52:03;;;;;;;;;;;;;;;16.17;66.18;102103.28;5138341;27;19919;-40
2021/06/24 08:54:28;;;;;;;;;;;;;;;16.16;66.18;102104.34;5139406;27;20250;-40
2021/06/24 08:56:53;;;;;;;;;;;;;;;16.18;66.75;102109.56;5138555;27;19907;-40
2021/06/24 08:59:19;;;;;;;;;;;;;;;16.17;66.08;102108.72;5138382;27;19908;-40
2021/06/24 09:01:51;;;;;;;;;;;;;;;16.16;66.42;102104.34;5138726;27;20333;-40
2021/06/24 09:04:17;;;;;;;;;;;;;;;16.18;66.07;102107.66;5138313;27;19964;-40
2021/06/24 09:06:43;;;;;;;;;;;;;;;16.21;66.23;102115.38;5138931;27;20321;-40
2021/06/24 09:09:08;;;;;;;;;;;;;;;16.20;66.46;102110.13;5138776;27;19954;-40
2021/06/24 09:11:33;;;;;;;;;;;;;;;16.20;66.37;102110.13;5138551;27;20391;-40
2021/06/24 09:14:06;;;;;;;;;;;;;;;16.21;66.44;102112.66;5138398;27;19908;-40
2021/06/24 09:16:33;;;;;;;;;;;;;;;16.23;66.29;102115.13;5138099;27;20367;-43
2021/06/24 09:19:19;;;;;;;;;;;;;;;16.23;66.31;102115.97;5137720;27;20422;-40
2021/06/24 09:21:45;;;;;;;;;;;;;;;16.27;66.57;102113.59;5138228;27;19907;-40
2021/06/24 09:24:24;;;;;;;;;;;;;;;16.29;66.25;102108.72;5137697;27;19907;-40
2021/06/24 09:26:49;;;;;;;;;;;;;;;16.29;66.49;102114.16;5138202;27;19907;-40
2021/06/24 09:29:15;;;;;;;;;;;;;;;16.33;66.99;102118.09;5137708;27;20387;-40
2021/06/24 09:31:42;;;;;;;;;;;;;;;16.36;67.05;102116.78;5137842;27;19907;-40
2021/06/24 09:34:10;;;;;;;;;;;;;;;16.39;66.76;102117.13;5137718;27;19921;-41
2021/06/24 09:36:37;;;;;;;;;;;;;;;16.39;66.62;102124.50;5138585;27;19907;-40
2021/06/24 09:39:24;;;;;;;;;;;;;;;16.42;66.85;102124.84;5137675;27;19907;-40
2021/06/24 09:42:12;;;;;;;;;;;;;;;16.49;66.59;102127.44;5138533;27;19930;-40
2021/06/24 09:44:38;;;;;;;;;;;;;;;16.54;66.48;102133.00;5137297;27;19914;-40
2021/06/24 09:47:18;;;;;;;;;;;;;;;16.59;66.89;102133.16;5137915;27;20020;-40
2021/06/24 09:49:54;;;;;;;;;;;;;;;16.60;66.31;102123.06;5137093;27;19951;-40
2021/06/24 09:52:19;;;;;;;;;;;;;;;16.58;66.19;102125.19;5137087;27;20319;-40
2021/06/24 09:54:46;;;;;;;;;;;;;;;16.60;66.57;102129.34;5137703;27;19994;-40
2021/06/24 09:57:22;;;;;;;;;;;;;;;16.65;66.51;102117.72;5137605;27;19907;-40
2021/06/24 09:59:49;;;;;;;;;;;;;;;16.68;66.35;102118.03;5138148;27;20304;-40
2021/06/24 10:02:14;;;;;;;;;;;;;;;16.71;66.72;102114.00;5136878;27;19915;-40
2021/06/24 10:04:41;;;;;;;;;;;;;;;16.72;66.17;102124.72;5137210;27;19907;-40
2021/06/24 10:07:09;;;;;;;;;;;;;;;16.73;66.09;102118.16;5137147;27;19911;-41
2021/06/24 10:09:35;;;;;;;;;;;;;;;16.75;66.15;102117.13;5137011;27;19968;-41
2021/06/24 10:12:00;;;;;;;;;;;;;;;16.78;66.39;102113.88;5136755;27;19907;-41
2021/06/24 10:14:27;;;;;;;;;;;;;;;16.83;66.50;102116.72;5137352;27;19918;-41
2021/06/24 10:17:02;;;;;;;;;;;;;;;16.90;66.75;102120.16;5137565;27;20001;-41
2021/06/24 10:19:29;;;;;;;;;;;;;;;16.96;65.86;102111.00;5137757;27;19907;-41
2021/06/24 10:22:20;;;;;;;;;;;;;;;16.98;64.82;102122.50;5137519;27;19942;-41
2021/06/24 10:24:51;;;;;;;;;;;;;;;16.95;65.66;102123.00;5132358;27;19914;-41
2021/06/24 10:27:17;;;;;;;;;;;;;;;16.93;64.79;102125.13;5136806;27;19912;-41
2021/06/24 10:29:43;;;;;;;;;;;;;;;16.91;65.26;102117.19;5136706;27;20009;-41
2021/06/24 10:32:20;;;;;;;;;;;;;;;16.95;65.72;102120.28;5136955;27;19907;-40
2021/06/24 10:34:50;;;;;;;;;;;;;;;16.97;65.44;102109.91;5135677;27;19951;-41
2021/06/24 10:37:16;;;;;;;;;;;;;;;17.02;64.22;102115.47;5136362;27;19907;-41
2021/06/24 10:39:42;;;;;;;;;;;;;;;17.02;65.13;102112.75;5137066;27;19908;-41
2021/06/24 10:42:09;;;;;;;;;;;;;;;17.10;65.36;102108.81;5136752;27;19914;-40
2021/06/24 10:44:55;;;;;;;;;;;;;;;17.18;64.97;102112.00;5136058;27;19914;-41
2021/06/24 10:47:27;;;;;;;;;;;;;;;17.25;64.33;102107.19;5136291;27;19918;-41
2021/06/24 10:49:52;;;;;;;;;;;;;;;17.27;63.00;102103.38;5136401;27;19911;-41
2021/06/24 10:52:27;;;;;;;;;;;;;;;17.28;64.49;102107.78;5136280;27;20244;-41
2021/06/24 10:54:56;;;;;;;;;;;;;;;17.29;64.23;102095.78;5136523;27;20251;-40
2021/06/24 10:57:33;;;;;;;;;;;;;;;17.43;64.76;102097.13;5136509;27;20350;-40
2021/06/24 11:00:17;;;;;;;;;;;;;;;17.50;63.03;102098.59;5135775;27;19908;-40
2021/06/24 11:02:47;;;;;;;;;;;;;;;17.61;63.82;102105.06;5136873;27;19908;-40
2021/06/24 11:05:17;;;;;;;;;;;;;;;17.65;63.54;102099.94;5136390;27;19907;-41
2021/06/24 11:07:42;;;;;;;;;;;;;;;17.64;63.43;102095.56;5136715;27;19996;-41
2021/06/24 11:10:15;;;;;;;;;;;;;;;17.65;62.82;102095.31;5136529;27;19976;-40
2021/06/24 11:12:56;;;;;;;;;;;;;;;17.71;63.22;102093.47;5135839;27;19907;-40
2021/06/24 11:15:41;;;;;;;;;;;;;;;17.79;62.59;102095.03;5136127;27;19907;-41
2021/06/24 11:18:06;;;;;;;;;;;;;;;17.81;62.89;102090.13;5135753;27;19915;-41
2021/06/24 11:20:43;;;;;;;;;;;;;;;17.80;61.77;102094.75;5135720;27;19907;-41
2021/06/24 11:23:28;;;;;;;;;;;;;;;17.87;62.96;102098.16;5135618;27;19907;-40
2021/06/24 11:26:03;;;;;;;;;;;;;;;17.95;62.37;102094.16;5135874;27;19911;-41
2021/06/24 11:28:56;;;;;;;;;;;;;;;17.99;61.40;102089.84;5135489;27;20243;-41
2021/06/24 11:31:35;;;;;;;;;;;;;;;18.06;61.71;102087.78;5136375;27;19930;-41
2021/06/24 11:36:36;;;;;;;;;;;;;;;17.98;61.19;102089.03;5136081;27;20350;-41
2021/06/24 11:39:03;;;;;;;;;;;;;;;17.98;61.25;102089.03;5135363;27;19958;-40
2021/06/24 11:41:28;;;;;;;;;;;;;;;17.96;61.61;102082.16;5135951;27;19907;-40
2021/06/24 11:43:58;;;;;;;;;;;;;;;18.03;62.44;102091.03;5136208;27;19914;-40
2021/06/24 11:46:27;;;;;;;;;;;;;;;18.01;60.70;102085.81;5135131;27;19938;-40
2021/06/24 11:49:14;;;;;;;;;;;;;;;17.99;61.72;102085.22;5135352;27;20363;-40
2021/06/24 12:05:06;;;;;;;;;;;;;;;18.48;60.78;102076.31;5135200;27;19914;-40
2021/06/24 12:07:35;;;;;;;;;;;;;;;18.52;61.02;102078.28;5135236;27;20404;-40
2021/06/24 12:10:00;;;;;;;;;;;;;;;18.52;60.35;102077.47;5135636;27;19907;-40
2021/06/24 12:12:26;;;;;;;;;;;;;;;18.59;61.13;102075.34;5135579;27;20031;-40
2021/06/24 12:14:56;;;;;;;;;;;;;;;18.68;61.29;102068.38;5135067;27;19959;-40
2021/06/24 12:17:24;;;;;;;;;;;;;;;18.81;60.84;102078.13;5134970;27;19907;-40
2021/06/24 12:19:52;;;;;;;;;;;;;;;18.85;58.21;102071.06;5135256;27;19918;-40
2021/06/24 12:22:19;;;;;;;;;;;;;;;18.80;59.73;102078.41;5135122;28;20444;-40
2021/06/24 12:24:45;;;;;;;;;;;;;;;18.75;59.19;102069.03;5134951;27;19907;-40
2021/06/24 12:27:14;;;;;;;;;;;;;;;18.64;58.49;102075.44;5134927;27;19907;-40
2021/06/24 12:29:40;;;;;;;;;;;;;;;18.51;58.83;102070.34;5135127;27;19911;-41
2021/06/24 12:32:05;;;;;;;;;;;;;;;18.46;59.96;102073.00;5135083;27;19975;-41
2021/06/24 12:34:30;;;;;;;;;;;;;;;18.44;59.06;102070.50;5135616;27;20324;-41
2021/06/24 12:36:56;;;;;;;;;;;;;;;18.42;59.93;102074.59;5134536;28;19911;-41
2021/06/24 12:39:21;;;;;;;;;;;;;;;18.42;59.90;102080.06;5134684;28;19946;-41
2021/06/24 12:41:48;;;;;;;;;;;;;;;18.46;59.96;102070.28;5135317;28;19918;-40
2021/06/24 12:44:13;;;;;;;;;;;;;;;18.49;59.82;102077.97;5134438;27;19930;-41
2021/06/24 12:46:38;;;;;;;;;;;;;;;18.44;59.70;102077.91;5134166;27;19907;-41
2021/06/24 12:49:13;;;;;;;;;;;;;;;18.40;60.04;102077.59;5134625;28;19907;-40